EGPN/DND METAR and TAF weather

Enter ICAO airport designator
Station Type Date Time Source
EGPN METAR 2020/08/05 15:20 UTC NOAA

EGPN 051520Z 23005KT 9999 FEW008 SCT025 17/15 Q1004


Station Type Date Time Source
EGPN Decoded METAR 2020/08/05 15:20 UTC NOAA

Dundee / Riverside, United Kingdom (EGPN) 56-27N 003-01W
Aug 05, 2020 - 11:20 AM EDT / 2020.08.05 1520 UTC
Wind: from the SW (230 degrees) at 6 MPH (5 KT):0
Visibility: greater than 7 mile(s):0
Sky conditions: partly cloudy
Temperature: 62 F (17 C)
Dew Point: 59 F (15 C)
Relative Humidity: 88%
Pressure (altimeter): 29.65 in. Hg (1004 hPa)
ob: EGPN 051520Z 23005KT 9999 FEW008 SCT025 17/15 Q1004
cycle: 15

Station Type Date Time Source
EGPN TAF 2019/01/15 18:56 UTC NOAA

TAF EGPN 151750Z 1518/1621 CNL

Example: see airport list